createdAt,value
2023-02-18T00:01:47.691Z,10.30
2023-02-18T00:04:14.998Z,10.27
2023-02-18T00:06:42.646Z,10.30
2023-02-18T00:09:12.084Z,10.29
2023-02-18T00:11:40.171Z,10.27
2023-02-18T00:14:13.578Z,10.34
2023-02-18T00:16:42.210Z,10.36
2023-02-18T00:19:17.770Z,10.32
2023-02-18T00:21:46.632Z,10.46
2023-02-18T00:24:17.004Z,10.44
2023-02-18T00:26:45.522Z,10.50
2023-02-18T00:29:12.961Z,10.47
2023-02-18T00:31:41.614Z,10.55
2023-02-18T00:34:11.100Z,10.55
2023-02-18T00:36:38.762Z,10.56
2023-02-18T00:39:10.281Z,10.62
2023-02-18T00:41:38.938Z,10.66
2023-02-18T00:44:07.018Z,10.66
2023-02-18T00:46:36.119Z,10.59
2023-02-18T00:49:05.099Z,10.57
2023-02-18T00:51:33.594Z,10.58
2023-02-18T00:54:01.064Z,10.42
2023-02-18T00:56:29.068Z,10.33
2023-02-18T00:58:56.401Z,10.16
2023-02-18T01:01:24.490Z,10.16
2023-02-18T01:03:52.017Z,10.13
2023-02-18T01:06:22.180Z,10.12
2023-02-18T01:08:49.868Z,10.18
2023-02-18T01:11:18.012Z,10.10
2023-02-18T01:13:45.267Z,10.04
2023-02-18T01:16:13.207Z,10.02
2023-02-18T01:18:40.811Z,9.94
2023-02-18T01:21:09.236Z,9.98
2023-02-18T01:23:41.978Z,9.88
2023-02-18T01:26:11.537Z,9.87
2023-02-18T01:28:41.644Z,9.85
2023-02-18T01:31:12.821Z,9.85
2023-02-18T01:33:40.584Z,9.79
2023-02-18T01:36:10.891Z,9.80
2023-02-18T01:38:38.398Z,9.83
2023-02-18T01:41:06.494Z,9.71
2023-02-18T01:43:35.013Z,9.89
2023-02-18T01:46:13.918Z,9.81
2023-02-18T01:48:56.776Z,9.76
2023-02-18T01:51:34.388Z,9.72
2023-02-18T01:54:43.253Z,9.79
2023-02-18T01:57:21.613Z,9.73
2023-02-18T02:00:00.186Z,9.73
2023-02-18T02:02:30.126Z,9.63
2023-02-18T02:04:58.338Z,9.58
2023-02-18T02:07:28.977Z,9.56
2023-02-18T02:09:59.992Z,9.57
2023-02-18T02:12:52.168Z,9.56
2023-02-18T02:15:38.205Z,9.55
2023-02-18T02:18:27.183Z,9.49
2023-02-18T02:21:30.570Z,9.48
2023-02-18T02:24:36.876Z,9.33
2023-02-18T02:27:42.085Z,9.26
2023-02-18T02:30:42.756Z,9.29
2023-02-18T02:33:25.033Z,9.24
2023-02-18T02:36:05.544Z,9.22
2023-02-18T02:38:52.406Z,9.17
2023-02-18T02:41:52.918Z,9.18
2023-02-18T02:44:30.326Z,9.17
2023-02-18T02:47:32.381Z,9.09
2023-02-18T02:50:23.596Z,9.05
2023-02-18T02:52:59.424Z,8.96
2023-02-18T02:55:26.861Z,8.97
2023-02-18T02:57:56.723Z,8.99
2023-02-18T03:00:49.941Z,8.96
2023-02-18T03:03:51.647Z,9.05
2023-02-18T03:06:38.129Z,9.07
2023-02-18T03:09:38.008Z,9.04
2023-02-18T03:12:55.558Z,9.09
2023-02-18T03:15:42.940Z,9.04
2023-02-18T03:18:30.586Z,9.04
2023-02-18T03:21:08.799Z,9.02
2023-02-18T03:23:46.850Z,8.94
2023-02-18T03:26:18.785Z,8.87
2023-02-18T03:28:51.185Z,8.81
2023-02-18T03:31:25.998Z,8.82
2023-02-18T03:34:02.188Z,8.77
2023-02-18T03:59:32.668Z,8.72
2023-02-18T04:02:00.993Z,8.69
2023-02-18T04:04:28.891Z,8.73
2023-02-18T04:06:56.442Z,8.78
2023-02-18T04:09:23.804Z,8.66
2023-02-18T04:11:51.610Z,8.65
2023-02-18T04:14:19.117Z,8.61
2023-02-18T04:16:46.952Z,8.58
2023-02-18T04:19:14.253Z,8.58
2023-02-18T04:21:41.810Z,8.54
2023-02-18T04:24:09.291Z,8.53
2023-02-18T04:26:36.819Z,8.59
2023-02-18T04:29:04.112Z,8.42
2023-02-18T04:31:31.758Z,8.45
2023-02-18T04:33:59.088Z,8.37
2023-02-18T04:36:26.854Z,8.39
2023-02-18T04:38:54.132Z,8.28
2023-02-18T04:41:21.630Z,8.26
2023-02-18T04:43:48.898Z,8.24
2023-02-18T04:46:16.499Z,8.22
2023-02-18T04:48:43.897Z,8.30
2023-02-18T04:51:11.520Z,8.32
2023-02-18T04:53:38.788Z,8.23
2023-02-18T04:56:07.044Z,8.14
2023-02-18T04:58:34.570Z,8.27
2023-02-18T05:01:04.649Z,8.16
2023-02-18T05:03:33.340Z,8.15
2023-02-18T05:06:00.887Z,8.16
2023-02-18T05:08:28.192Z,8.07
2023-02-18T05:10:55.790Z,8.10
2023-02-18T05:13:23.281Z,8.04
2023-02-18T05:15:51.151Z,8.05
2023-02-18T05:18:18.445Z,8.10
2023-02-18T05:20:46.049Z,7.96
2023-02-18T05:23:13.551Z,7.95
2023-02-18T05:25:41.041Z,7.96
2023-02-18T05:28:08.397Z,7.99
2023-02-18T05:30:35.987Z,7.98
2023-02-18T05:33:03.264Z,8.03
2023-02-18T05:35:30.961Z,8.01
2023-02-18T05:37:58.220Z,8.07
2023-02-18T05:40:25.761Z,8.01
2023-02-18T05:42:53.022Z,8.03
2023-02-18T05:45:20.605Z,8.06
2023-02-18T05:47:47.872Z,8.12
2023-02-18T05:50:15.616Z,8.07
2023-02-18T05:52:42.955Z,8.05
2023-02-18T05:55:10.590Z,8.15
2023-02-18T05:57:37.805Z,8.10
2023-02-18T06:00:07.600Z,8.21
2023-02-18T06:02:34.889Z,8.17
2023-02-18T06:05:03.079Z,8.31
2023-02-18T06:07:30.407Z,8.28
2023-02-18T06:09:58.048Z,8.26
2023-02-18T06:12:26.086Z,8.34
2023-02-18T06:14:53.767Z,8.52
2023-02-18T06:17:22.724Z,8.48
2023-02-18T06:19:50.320Z,8.53
2023-02-18T06:22:17.721Z,8.48
2023-02-18T06:24:45.395Z,8.59
2023-02-18T06:27:12.695Z,8.61
2023-02-18T06:29:40.242Z,8.78
2023-02-18T06:32:07.670Z,8.67
2023-02-18T06:34:35.253Z,8.72
2023-02-18T06:37:02.515Z,8.81
2023-02-18T06:39:30.080Z,8.90
2023-02-18T06:41:57.448Z,8.88
2023-02-18T06:44:24.974Z,8.92
2023-02-18T06:46:52.297Z,8.98
2023-02-18T06:49:19.849Z,9.07
2023-02-18T06:51:47.211Z,9.21
2023-02-18T06:54:14.766Z,9.14
2023-02-18T06:56:42.090Z,9.29
2023-02-18T06:59:09.739Z,9.29
2023-02-18T07:01:37.054Z,9.27
2023-02-18T07:04:04.833Z,9.15
2023-02-18T07:06:32.149Z,9.23
2023-02-18T07:08:59.831Z,9.24
2023-02-18T07:11:27.187Z,9.23
2023-02-18T07:13:54.779Z,9.24
2023-02-18T07:16:22.082Z,9.26
2023-02-18T07:18:49.759Z,9.25
2023-02-18T07:21:17.084Z,9.30
2023-02-18T07:23:44.672Z,9.38
2023-02-18T07:26:14.676Z,9.34
2023-02-18T07:28:42.884Z,9.34
2023-02-18T07:31:10.589Z,9.43
2023-02-18T07:33:38.245Z,9.35
2023-02-18T07:36:06.662Z,9.47
2023-02-18T07:38:34.504Z,9.44
2023-02-18T07:41:01.858Z,9.52
2023-02-18T07:43:29.421Z,9.47
2023-02-18T07:45:56.744Z,9.46
2023-02-18T07:48:24.362Z,9.47
2023-02-18T07:50:51.671Z,9.49
2023-02-18T07:53:19.254Z,9.54
2023-02-18T07:55:49.339Z,9.55
2023-02-18T07:58:28.126Z,9.54
2023-02-18T08:00:56.262Z,9.54
2023-02-18T08:03:29.127Z,9.56
2023-02-18T08:05:57.285Z,9.67
2023-02-18T08:08:31.454Z,9.70
2023-02-18T08:11:13.301Z,9.80
2023-02-18T08:13:47.185Z,9.64
2023-02-18T08:16:16.116Z,9.62
2023-02-18T08:18:43.841Z,9.61
2023-02-18T08:21:11.161Z,9.62
2023-02-18T08:23:39.344Z,9.70
2023-02-18T08:26:07.530Z,9.83
2023-02-18T08:28:35.610Z,9.90
2023-02-18T08:31:03.146Z,9.82
2023-02-18T08:33:31.078Z,9.87
2023-02-18T08:35:58.840Z,9.92
2023-02-18T08:38:26.537Z,9.89
2023-02-18T08:41:03.551Z,9.91
2023-02-18T08:43:31.370Z,9.93
2023-02-18T08:45:59.486Z,9.91
2023-02-18T08:48:28.156Z,9.92
2023-02-18T08:50:55.814Z,10.04
2023-02-18T08:53:23.808Z,10.14
2023-02-18T08:55:51.210Z,10.17
2023-02-18T08:58:18.793Z,10.44
2023-02-18T09:00:46.556Z,10.35
2023-02-18T09:03:15.955Z,10.55
2023-02-18T09:05:43.244Z,10.60
2023-02-18T09:08:10.967Z,10.62
2023-02-18T09:10:39.601Z,10.67
2023-02-18T09:13:07.159Z,10.43
2023-02-18T09:15:34.429Z,10.46
2023-02-18T09:18:02.076Z,10.34
2023-02-18T09:20:29.488Z,10.23
2023-02-18T09:22:57.906Z,10.30
2023-02-18T09:25:25.715Z,10.22
2023-02-18T09:27:53.272Z,10.31
2023-02-18T09:30:20.753Z,10.40
2023-02-18T09:32:48.326Z,10.43
2023-02-18T09:35:15.711Z,10.61
2023-02-18T09:37:43.291Z,11.04
2023-02-18T09:40:29.601Z,11.00
2023-02-18T09:42:59.165Z,10.99
2023-02-18T09:45:27.882Z,11.00
2023-02-18T09:47:56.554Z,11.49
2023-02-18T09:50:28.971Z,11.51
2023-02-18T09:53:01.868Z,11.16
2023-02-18T09:55:33.882Z,11.00
2023-02-18T09:58:13.791Z,11.34
2023-02-18T10:00:47.535Z,11.18
2023-02-18T10:03:23.587Z,11.02
2023-02-18T10:06:02.358Z,11.08
2023-02-18T10:08:42.653Z,10.83
2023-02-18T10:11:30.900Z,10.53
2023-02-18T10:14:02.968Z,10.52
2023-02-18T10:16:30.996Z,10.78
2023-02-18T10:19:20.352Z,10.74
2023-02-18T10:21:49.647Z,10.81
2023-02-18T10:24:55.685Z,10.60
2023-02-18T10:27:39.379Z,10.54
2023-02-18T10:30:15.775Z,10.34
2023-02-18T10:32:47.171Z,10.21
2023-02-18T10:35:46.400Z,10.08
2023-02-18T10:38:46.703Z,9.88
2023-02-18T10:42:06.435Z,9.71
2023-02-18T10:45:09.484Z,9.45
2023-02-18T10:48:10.221Z,9.32
2023-02-18T10:50:46.198Z,9.39
2023-02-18T10:53:36.249Z,9.32
2023-02-18T10:56:05.862Z,9.36
2023-02-18T10:58:46.233Z,9.24
2023-02-18T11:01:21.326Z,9.27
2023-02-18T11:04:07.067Z,9.26
2023-02-18T11:06:45.291Z,9.19
2023-02-18T11:09:47.860Z,9.32
2023-02-18T11:12:22.907Z,9.34
2023-02-18T11:15:13.706Z,9.35
2023-02-18T11:17:43.936Z,9.35
2023-02-18T11:20:26.292Z,9.30
2023-02-18T11:23:06.445Z,9.33
2023-02-18T11:25:41.937Z,9.23
2023-02-18T11:28:18.309Z,9.10
2023-02-18T11:30:53.501Z,9.13
2023-02-18T11:33:56.884Z,8.88
2023-02-18T11:36:33.151Z,8.91
2023-02-18T11:39:07.562Z,8.98
2023-02-18T11:41:48.308Z,8.82
2023-02-18T11:44:52.487Z,8.74
2023-02-18T11:47:26.275Z,8.84
2023-02-18T11:50:08.806Z,8.79
2023-02-18T11:52:39.637Z,8.64
2023-02-18T11:55:08.994Z,8.46
2023-02-18T11:57:41.587Z,8.62
2023-02-18T12:00:48.123Z,8.72
2023-02-18T12:03:57.062Z,8.64
2023-02-18T12:06:35.080Z,8.62
2023-02-18T12:09:31.757Z,8.78
2023-02-18T12:12:28.270Z,9.15
2023-02-18T12:14:58.893Z,9.31
2023-02-18T12:17:52.910Z,9.11
2023-02-18T12:20:34.503Z,9.38
2023-02-18T12:23:27.383Z,9.55
2023-02-18T12:26:22.388Z,9.29
2023-02-18T12:29:01.718Z,9.32
2023-02-18T12:31:57.040Z,9.36
2023-02-18T12:34:46.834Z,9.56
2023-02-18T12:37:47.192Z,9.74
2023-02-18T12:40:38.865Z,9.78
2023-02-18T12:43:53.100Z,9.68
2023-02-18T12:46:41.926Z,9.63
2023-02-18T12:50:00.111Z,9.64
2023-02-18T12:53:07.111Z,9.43
2023-02-18T12:56:13.530Z,9.43
2023-02-18T12:59:15.892Z,9.44
2023-02-18T13:02:14.615Z,9.55
2023-02-18T13:05:07.750Z,9.57
2023-02-18T13:08:07.377Z,9.56
2023-02-18T13:11:31.033Z,9.51
2023-02-18T13:14:17.567Z,9.52
2023-02-18T13:16:51.723Z,9.54
2023-02-18T13:19:31.909Z,9.51
2023-02-18T13:22:09.626Z,9.38
2023-02-18T13:24:43.314Z,9.32
2023-02-18T13:28:10.084Z,9.31
2023-02-18T13:31:04.875Z,9.27
2023-02-18T13:33:57.024Z,9.26
2023-02-18T13:37:01.324Z,9.25
2023-02-18T13:39:30.098Z,9.26
2023-02-18T13:42:37.713Z,9.05
2023-02-18T13:45:24.169Z,9.01
2023-02-18T13:47:53.281Z,8.97
2023-02-18T13:50:23.338Z,8.89
2023-02-18T13:53:00.932Z,8.94
2023-02-18T13:56:09.716Z,8.87
2023-02-18T13:58:44.273Z,8.84
2023-02-18T14:01:11.743Z,8.74
2023-02-18T14:03:47.675Z,8.68
2023-02-18T14:06:33.925Z,8.89
2023-02-18T14:09:24.500Z,8.76
2023-02-18T14:11:56.701Z,8.81
2023-02-18T14:14:27.004Z,8.87
2023-02-18T14:17:18.805Z,8.70
2023-02-18T14:20:01.070Z,8.67
2023-02-18T14:22:31.159Z,8.63
2023-02-18T14:25:22.293Z,8.52
2023-02-18T14:27:54.804Z,8.70
2023-02-18T14:30:22.385Z,8.72
2023-02-18T14:33:00.660Z,8.56
2023-02-18T14:35:51.118Z,8.59
2023-02-18T14:38:52.387Z,8.44
2023-02-18T14:41:56.916Z,8.41
2023-02-18T14:44:48.616Z,8.42
2023-02-18T14:47:53.000Z,8.38
2023-02-18T14:50:22.381Z,8.47
2023-02-18T14:53:03.678Z,8.30
2023-02-18T14:55:38.564Z,8.23
2023-02-18T14:58:22.488Z,8.15
2023-02-18T15:00:49.814Z,8.03
2023-02-18T15:03:22.444Z,8.21
2023-02-18T15:05:51.938Z,8.05
2023-02-18T15:08:26.756Z,8.07
2023-02-18T15:11:08.368Z,8.08
2023-02-18T15:13:45.430Z,7.88
2023-02-18T15:16:34.253Z,7.81
2023-02-18T15:19:13.705Z,7.88
2023-02-18T15:21:46.210Z,7.80
2023-02-18T15:24:37.322Z,7.84
2023-02-18T15:27:32.126Z,7.91
2023-02-18T15:30:13.529Z,8.03
2023-02-18T15:32:45.577Z,8.06
2023-02-18T15:35:19.781Z,8.17
2023-02-18T15:37:54.946Z,8.16
2023-02-18T15:40:34.732Z,8.41
2023-02-18T15:43:05.914Z,8.37
2023-02-18T15:45:45.138Z,8.48
2023-02-18T15:48:51.357Z,8.64
2023-02-18T15:51:27.635Z,8.72
2023-02-18T15:54:00.840Z,8.88
2023-02-18T15:56:43.576Z,9.11
2023-02-18T15:59:44.889Z,9.17
2023-02-18T16:02:23.012Z,9.30
2023-02-18T16:05:00.108Z,9.32
2023-02-18T16:07:53.029Z,9.46
2023-02-18T16:10:23.968Z,9.50
2023-02-18T16:13:00.491Z,9.56
2023-02-18T16:15:40.845Z,9.52
2023-02-18T16:18:30.197Z,9.61
2023-02-18T16:21:09.763Z,9.70
2023-02-18T16:23:45.167Z,9.73
2023-02-18T16:26:28.753Z,9.76
2023-02-18T16:29:24.363Z,9.82
2023-02-18T16:31:51.837Z,9.89
2023-02-18T16:34:19.621Z,9.89
2023-02-18T16:37:05.635Z,9.87
2023-02-18T16:39:36.091Z,9.83
2023-02-18T16:42:04.081Z,9.86
2023-02-18T16:44:33.902Z,9.95
2023-02-18T16:47:01.955Z,9.91
2023-02-18T16:49:31.198Z,9.86
2023-02-18T16:52:06.145Z,9.90
2023-02-18T16:54:34.765Z,9.83
2023-02-18T16:57:02.115Z,9.84
2023-02-18T16:59:29.747Z,9.83
2023-02-18T17:01:57.096Z,9.83
2023-02-18T17:04:24.750Z,9.68
2023-02-18T17:06:52.170Z,9.75
2023-02-18T17:09:23.425Z,9.71
2023-02-18T17:11:53.866Z,9.72
2023-02-18T17:14:23.695Z,9.72
2023-02-18T17:16:54.504Z,9.72
2023-02-18T17:19:22.283Z,9.70
2023-02-18T17:21:50.371Z,9.73
2023-02-18T17:24:19.332Z,9.79
2023-02-18T17:26:46.687Z,9.78
2023-02-18T17:29:14.347Z,9.76
2023-02-18T17:31:47.635Z,9.92
2023-02-18T17:34:26.699Z,9.92
2023-02-18T17:36:54.718Z,9.91
2023-02-18T17:39:22.740Z,9.93
2023-02-18T17:41:50.431Z,9.89
2023-02-18T17:44:23.905Z,10.01
2023-02-18T17:46:51.630Z,10.05
2023-02-18T17:49:19.466Z,10.06
2023-02-18T17:51:48.062Z,10.03
2023-02-18T17:54:22.884Z,10.06
2023-02-18T17:56:50.673Z,10.03
2023-02-18T17:59:18.323Z,10.09
2023-02-18T18:01:45.792Z,10.08
2023-02-18T18:04:17.082Z,10.08
2023-02-18T18:06:46.993Z,10.16
2023-02-18T18:09:14.835Z,10.15
2023-02-18T18:11:42.472Z,10.16
2023-02-18T18:14:15.118Z,10.17
2023-02-18T18:16:42.492Z,10.10
2023-02-18T18:19:10.534Z,10.15
2023-02-18T18:21:38.354Z,10.19
2023-02-18T18:24:06.316Z,10.17
2023-02-18T18:26:33.683Z,10.19
2023-02-18T18:29:01.474Z,10.28
2023-02-18T18:31:29.059Z,10.23
2023-02-18T18:33:57.334Z,10.15
2023-02-18T18:36:24.665Z,10.19
2023-02-18T18:38:53.023Z,10.21
2023-02-18T18:41:22.893Z,10.16
2023-02-18T18:43:51.285Z,10.15
2023-02-18T18:46:19.071Z,10.13
2023-02-18T18:48:46.989Z,10.21
2023-02-18T18:51:30.071Z,10.16
2023-02-18T18:53:57.721Z,10.11
2023-02-18T18:56:25.336Z,10.22
2023-02-18T18:58:53.122Z,10.12
2023-02-18T19:01:27.728Z,10.14
2023-02-18T19:03:56.032Z,10.12
2023-02-18T19:06:23.488Z,10.19
2023-02-18T19:08:51.574Z,10.15
2023-02-18T19:11:18.994Z,10.18
2023-02-18T19:13:46.858Z,10.15
2023-02-18T19:16:22.538Z,10.15
2023-02-18T19:18:50.536Z,10.12
2023-02-18T19:21:18.702Z,10.14
2023-02-18T19:23:46.401Z,10.05
2023-02-18T19:26:16.859Z,10.12
2023-02-18T19:28:46.243Z,10.15
2023-02-18T19:31:14.089Z,10.14
2023-02-18T19:33:45.626Z,10.09
2023-02-18T19:36:14.913Z,10.14
2023-02-18T19:38:43.038Z,10.17
2023-02-18T19:41:19.089Z,10.17
2023-02-18T19:43:47.183Z,10.09
2023-02-18T19:46:19.253Z,10.11
2023-02-18T19:48:52.746Z,10.12
2023-02-18T19:51:21.470Z,10.18
2023-02-18T19:53:49.230Z,10.33
2023-02-18T19:56:16.739Z,10.25
2023-02-18T19:58:44.611Z,10.27
2023-02-18T20:01:18.363Z,10.26
2023-02-18T20:03:47.427Z,10.32
2023-02-18T20:06:21.148Z,10.31
2023-02-18T20:08:49.007Z,10.33
2023-02-18T20:11:16.640Z,10.37
2023-02-18T20:13:44.769Z,10.41
2023-02-18T20:16:12.334Z,10.38
2023-02-18T20:18:40.191Z,10.36
2023-02-18T20:21:12.484Z,10.38
2023-02-18T20:23:40.906Z,10.41
2023-02-18T20:26:10.415Z,10.39
2023-02-18T20:28:38.621Z,10.31
2023-02-18T20:31:13.634Z,10.44
2023-02-18T20:33:42.672Z,10.37
2023-02-18T20:36:13.751Z,10.35
2023-02-18T20:38:41.475Z,10.36
2023-02-18T20:41:14.552Z,10.34
2023-02-18T20:43:42.448Z,10.32
2023-02-18T20:46:17.134Z,10.29
2023-02-18T20:48:45.619Z,10.20
2023-02-18T20:51:17.672Z,10.21
2023-02-18T20:53:46.612Z,10.18
2023-02-18T20:56:14.979Z,10.14
2023-02-18T20:58:42.645Z,9.99
2023-02-18T21:01:16.288Z,9.78
2023-02-18T21:03:47.726Z,9.69
2023-02-18T21:06:22.746Z,9.53
2023-02-18T21:08:54.070Z,9.48
2023-02-18T21:11:26.130Z,9.40
2023-02-18T21:13:56.262Z,9.32
2023-02-18T21:16:27.161Z,9.30
2023-02-18T21:18:55.572Z,9.18
2023-02-18T21:21:26.164Z,9.18
2023-02-18T21:23:54.270Z,9.15
2023-02-18T21:26:25.616Z,9.10
2023-02-18T21:28:57.483Z,8.99
2023-02-18T21:31:29.117Z,9.04
2023-02-18T21:33:58.302Z,9.01
2023-02-18T21:36:26.825Z,9.05
2023-02-18T21:39:04.217Z,9.04
2023-02-18T21:41:34.078Z,9.05
2023-02-18T21:44:02.153Z,9.06
2023-02-18T21:46:32.877Z,8.97
2023-02-18T21:49:07.254Z,9.00
2023-02-18T21:51:59.497Z,9.05
2023-02-18T21:54:36.158Z,9.03
2023-02-18T21:57:05.409Z,9.00
2023-02-18T21:59:35.465Z,8.85
2023-02-18T22:02:05.108Z,8.88
2023-02-18T22:04:37.097Z,8.79
2023-02-18T22:07:04.682Z,8.78
2023-02-18T22:09:32.447Z,8.78
2023-02-18T22:11:59.788Z,8.78
2023-02-18T22:14:28.055Z,8.70
2023-02-18T22:16:55.623Z,8.72
2023-02-18T22:19:23.857Z,8.70
2023-02-18T22:21:51.328Z,8.69
2023-02-18T22:24:19.836Z,8.75
2023-02-18T22:26:49.050Z,8.60
2023-02-18T22:29:19.698Z,8.58
2023-02-18T22:31:48.164Z,8.62
2023-02-18T22:34:17.149Z,8.42
2023-02-18T22:36:44.553Z,8.47
2023-02-18T22:39:13.832Z,8.44
2023-02-18T22:41:42.974Z,8.42
2023-02-18T22:44:15.983Z,8.38
2023-02-18T22:46:43.887Z,8.37
2023-02-18T22:49:12.137Z,8.36
2023-02-18T22:51:43.992Z,8.32
2023-02-18T22:54:15.858Z,8.35
2023-02-18T22:56:45.149Z,8.30
2023-02-18T22:59:16.679Z,8.25
2023-02-18T23:01:53.130Z,8.23
2023-02-18T23:04:21.371Z,8.25
2023-02-18T23:06:49.898Z,8.24
2023-02-18T23:09:24.526Z,8.22
2023-02-18T23:11:56.554Z,8.29
2023-02-18T23:14:28.229Z,8.35
2023-02-18T23:17:14.944Z,8.23
2023-02-18T23:19:53.040Z,8.34
2023-02-18T23:22:33.652Z,8.37
2023-02-18T23:25:02.918Z,8.24
2023-02-18T23:27:30.778Z,8.25
2023-02-18T23:29:58.589Z,8.22
2023-02-18T23:32:27.958Z,8.23
2023-02-18T23:34:55.690Z,8.18
2023-02-18T23:37:44.118Z,8.22
2023-02-18T23:40:13.960Z,8.20
2023-02-18T23:42:41.458Z,8.17
2023-02-18T23:45:09.586Z,8.21
2023-02-18T23:47:36.987Z,8.17
2023-02-18T23:50:05.045Z,8.12
2023-02-18T23:52:32.420Z,8.16
2023-02-18T23:55:00.026Z,8.20
2023-02-18T23:57:33.725Z,8.22
